Time;durP1;ratioP1;P1;durP2;ratioP2;P2;SDS_P1;SDS_P2;PMS_P1;PMS_P2;Temp;Humidity;BMP_temperature;BMP_pressure;BME280_temperature;BME280_humidity;BME280_pressure;Samples;Min_cycle;Max_cycle;Signal;HPM_P1;HPM_P2
2023/08/26 00:00:25;;;;;;;4.77;2.20;;;20.10;99.90;;;;;;8311645;28;20221;-66
2023/08/26 00:04:25;;;;;;;3.30;2.50;;;20.00;99.90;;;;;;8289010;28;20237;-66
2023/08/26 00:08:26;;;;;;;3.20;2.27;;;19.90;99.90;;;;;;8303672;28;20194;-66
2023/08/26 00:12:27;;;;;;;3.03;2.30;;;19.80;99.90;;;;;;8313491;28;20308;-66
2023/08/26 00:16:28;;;;;;;2.23;2.03;;;19.60;99.90;;;;;;8297842;28;20256;-66
2023/08/26 00:20:29;;;;;;;2.90;2.17;;;19.40;99.90;;;;;;8296978;28;20774;-67
2023/08/26 00:24:30;;;;;;;3.67;2.83;;;19.20;99.90;;;;;;8319511;28;20264;-67
2023/08/26 00:28:30;;;;;;;2.83;2.43;;;18.90;1.00;;;;;;8321121;28;20194;-66
2023/08/26 00:32:31;;;;;;;3.50;2.07;;;18.80;1.00;;;;;;8318255;28;21424;-66
2023/08/26 00:36:35;;;;;;;3.00;2.17;;;18.60;1.00;;;;;;8306876;28;20573;-67
2023/08/26 00:40:36;;;;;;;2.70;2.20;;;18.50;99.90;;;;;;8319673;28;20496;-66
2023/08/26 00:44:37;;;;;;;3.80;2.70;;;18.50;99.90;;;;;;8300703;28;20415;-67
2023/08/26 00:48:38;;;;;;;4.70;2.70;;;18.40;99.90;;;;;;8318963;28;20190;-66
2023/08/26 00:52:39;;;;;;;2.30;2.10;;;18.40;99.90;;;;;;8322701;28;20276;-66
2023/08/26 00:56:40;;;;;;;3.40;2.37;;;18.40;1.00;;;;;;8303260;28;20183;-66
2023/08/26 01:00:42;;;;;;;4.50;2.70;;;18.30;1.00;;;;;;8307931;28;20581;-66
2023/08/26 01:04:43;;;;;;;2.60;2.30;;;18.20;1.00;;;;;;8316071;28;20279;-66
2023/08/26 01:08:44;;;;;;;5.30;2.80;;;18.20;99.90;;;;;;8302732;28;20219;-66
2023/08/26 01:12:48;;;;;;;5.07;2.70;;;18.10;99.90;;;;;;8319361;28;20186;-65
2023/08/26 01:16:49;;;;;;;3.90;2.40;;;18.00;1.00;;;;;;8302841;28;20277;-63
2023/08/26 01:20:51;;;;;;;4.77;2.70;;;17.90;99.90;;;;;;8317792;28;20317;-66
2023/08/26 01:24:52;;;;;;;3.40;2.43;;;17.90;1.00;;;;;;8308154;28;20194;-66
2023/08/26 01:28:53;;;;;;;2.43;2.13;;;17.90;99.90;;;;;;8304587;28;20186;-67
2023/08/26 01:33:20;;;;;;;3.20;2.20;;;17.80;1.00;;;;;;8307317;28;20197;-66
2023/08/26 01:37:22;;;;;;;4.10;2.80;;;17.80;1.00;;;;;;8310770;28;20228;-67
2023/08/26 01:41:25;;;;;;;3.47;2.60;;;17.70;99.90;;;;;;8303084;28;20605;-66
2023/08/26 01:45:26;;;;;;;3.73;2.33;;;17.70;99.90;;;;;;8317391;28;20196;-66
2023/08/26 01:49:26;;;;;;;2.57;2.37;;;17.70;1.00;;;;;;8313137;28;20202;-66
2023/08/26 01:53:27;;;;;;;3.87;3.00;;;17.60;99.90;;;;;;8304757;28;20543;-66
2023/08/26 01:57:28;;;;;;;5.13;2.63;;;17.70;99.90;;;;;;8318176;28;20198;-66
2023/08/26 02:01:29;;;;;;;4.50;3.53;;;17.80;99.90;;;;;;8301082;28;20207;-66
2023/08/26 02:05:30;;;;;;;6.03;3.40;;;18.10;99.90;;;;;;8305380;28;20186;-66
2023/08/26 02:09:30;;;;;;;3.60;2.93;;;18.40;99.90;;;;;;8299660;28;20244;-67
2023/08/26 02:13:31;;;;;;;4.67;2.90;;;18.60;1.00;;;;;;8309039;28;20189;-67
2023/08/26 02:17:33;;;;;;;3.77;2.60;;;18.70;99.90;;;;;;8304253;28;20225;-67
2023/08/26 02:21:33;;;;;;;4.33;2.77;;;18.90;99.90;;;;;;8306595;28;20211;-67
2023/08/26 02:25:34;;;;;;;4.53;2.93;;;19.10;1.00;;;;;;8299045;28;20190;-66
2023/08/26 02:29:35;;;;;;;5.37;3.07;;;19.20;99.90;;;;;;8299941;28;20194;-67
2023/08/26 02:33:35;;;;;;;4.27;2.63;;;19.20;99.90;;;;;;8306066;28;20190;-67
2023/08/26 02:37:36;;;;;;;4.90;2.70;;;19.30;99.90;;;;;;8322023;28;20196;-66
2023/08/26 02:41:37;;;;;;;3.27;2.90;;;19.30;14.20;;;;;;8318731;28;20236;-65
2023/08/26 02:45:38;;;;;;;3.10;2.80;;;19.30;1.00;;;;;;8300219;28;20353;-65
2023/08/26 02:49:38;;;;;;;4.40;2.97;;;19.30;1.00;;;;;;8295837;28;20208;-65
2023/08/26 02:53:39;;;;;;;4.53;2.67;;;19.40;1.00;;;;;;8318402;28;20263;-64
2023/08/26 02:57:40;;;;;;;3.83;3.10;;;19.40;1.00;;;;;;8316040;28;20186;-65
2023/08/26 03:01:41;;;;;;;4.77;2.70;;;19.40;1.00;;;;;;8312541;28;20205;-64
2023/08/26 03:05:42;;;;;;;3.43;2.60;;;19.40;1.00;;;;;;8315776;28;20223;-66
2023/08/26 03:09:45;;;;;;;4.03;2.43;;;19.40;1.00;;;;;;8316123;28;20212;-63
2023/08/26 03:13:46;;;;;;;3.67;2.67;;;19.40;1.00;;;;;;8310785;28;20197;-63
2023/08/26 03:17:47;;;;;;;4.03;2.63;;;19.50;1.00;;;;;;8298588;28;20190;-64
2023/08/26 03:21:48;;;;;;;2.77;2.47;;;19.60;99.90;;;;;;8300042;28;20520;-64
2023/08/26 03:25:48;;;;;;;3.47;3.17;;;19.60;99.90;;;;;;8300031;28;20206;-65
2023/08/26 03:29:49;;;;;;;3.57;2.73;;;19.60;99.90;;;;;;8298026;28;20284;-64
2023/08/26 03:33:50;;;;;;;4.00;2.60;;;19.50;99.90;;;;;;8300288;28;20344;-63
2023/08/26 03:37:51;;;;;;;8.20;7.40;;;19.50;99.90;;;;;;8304610;28;20205;-63
2023/08/26 03:41:51;;;;;;;7.50;6.83;;;19.50;99.90;;;;;;8298230;28;20324;-65
2023/08/26 03:45:52;;;;;;;5.60;5.10;;;19.50;99.90;;;;;;8309501;28;20190;-66
2023/08/26 03:49:53;;;;;;;5.33;4.57;;;19.40;99.90;;;;;;8317169;28;20182;-68
2023/08/26 03:53:54;;;;;;;5.40;3.10;;;19.40;1.00;;;;;;8297810;28;20276;-66
2023/08/26 03:57:54;;;;;;;5.67;2.70;;;19.30;1.00;;;;;;8311869;28;20256;-66
2023/08/26 04:01:55;;;;;;;3.73;2.33;;;19.30;1.00;;;;;;8293489;28;20218;-66
2023/08/26 04:06:04;;;;;;;2.90;2.53;;;19.20;75.30;;;;;;8296168;28;20175;-67
2023/08/26 04:10:06;;;;;;;4.03;2.80;;;19.20;99.90;;;;;;8300912;28;20437;-67
2023/08/26 04:14:07;;;;;;;3.63;2.60;;;19.20;99.90;;;;;;8311105;28;20605;-65
2023/08/26 04:18:08;;;;;;;2.93;2.50;;;19.20;1.00;;;;;;8312847;28;20196;-66
2023/08/26 04:22:09;;;;;;;3.70;2.53;;;19.10;1.00;;;;;;8297912;28;20283;-66
2023/08/26 04:26:10;;;;;;;4.43;2.50;;;19.10;99.90;;;;;;8297891;28;20237;-66
2023/08/26 04:30:12;;;;;;;2.80;2.60;;;19.10;99.90;;;;;;8310619;28;20181;-66
2023/08/26 04:34:12;;;;;;;3.23;2.87;;;19.10;99.90;;;;;;8301697;28;20292;-66
2023/08/26 04:38:13;;;;;;;3.70;2.80;;;19.20;99.90;;;;;;8312313;28;20189;-67
2023/08/26 04:42:14;;;;;;;5.50;3.33;;;19.30;1.00;;;;;;8315409;28;20197;-67
2023/08/26 04:46:14;;;;;;;4.33;2.90;;;19.30;99.90;;;;;;8298965;28;20285;-66
2023/08/26 04:50:15;;;;;;;2.67;2.47;;;19.40;99.90;;;;;;8307456;28;20244;-66
2023/08/26 04:54:16;;;;;;;2.60;2.40;;;19.40;99.90;;;;;;8312058;28;20189;-66
2023/08/26 04:58:17;;;;;;;2.50;2.30;;;19.50;99.90;;;;;;8292212;28;20186;-66
2023/08/26 05:02:18;;;;;;;3.07;2.77;;;19.50;99.90;;;;;;8312031;28;20206;-66
2023/08/26 05:06:19;;;;;;;2.60;2.27;;;19.60;99.90;;;;;;8297361;28;20396;-63
2023/08/26 05:10:19;;;;;;;2.60;2.40;;;19.70;99.90;;;;;;8309955;28;20615;-65
2023/08/26 05:14:20;;;;;;;2.47;2.10;;;19.70;99.90;;;;;;8308311;28;20189;-64
2023/08/26 05:18:21;;;;;;;3.07;2.57;;;19.80;99.90;;;;;;8319203;28;20225;-67
2023/08/26 05:22:22;;;;;;;4.20;3.03;;;19.90;99.90;;;;;;8309945;28;20230;-66
2023/08/26 05:26:24;;;;;;;6.27;2.70;;;20.00;99.90;;;;;;8326010;28;20201;-66
2023/08/26 05:30:25;;;;;;;5.57;3.30;;;20.10;28.90;;;;;;8325362;28;20270;-65
2023/08/26 05:34:26;;;;;;;3.20;2.90;;;20.10;1.00;;;;;;8330314;28;20232;-65
2023/08/26 05:38:27;;;;;;;9.43;4.20;;;20.10;1.00;;;;;;8299016;28;20248;-66
2023/08/26 05:42:27;;;;;;;5.10;4.60;;;20.30;1.00;;;;;;8327805;28;20205;-66
2023/08/26 05:46:28;;;;;;;4.70;4.30;;;20.40;1.00;;;;;;8307607;28;20178;-66
2023/08/26 05:50:33;;;;;;;5.70;4.27;;;20.50;99.90;;;;;;8307971;28;20273;-66
2023/08/26 05:54:33;;;;;;;6.03;4.53;;;20.60;99.90;;;;;;8316756;28;20191;-65
2023/08/26 05:58:34;;;;;;;5.53;4.47;;;20.50;1.00;;;;;;8305542;28;20190;-65
2023/08/26 06:02:35;;;;;;;6.10;4.50;;;20.60;1.00;;;;;;8306047;28;20210;-66
2023/08/26 06:06:36;;;;;;;6.67;5.20;;;20.50;1.00;;;;;;8307559;28;20190;-66
2023/08/26 06:10:37;;;;;;;5.87;4.77;;;20.60;1.00;;;;;;8319521;28;20213;-64
2023/08/26 06:14:38;;;;;;;7.97;4.40;;;20.60;1.00;;;;;;8318736;28;20190;-63
2023/08/26 06:18:38;;;;;;;5.27;3.97;;;20.70;1.00;;;;;;8319261;28;20198;-65
2023/08/26 06:22:39;;;;;;;6.07;3.57;;;20.70;1.00;;;;;;8323549;28;20660;-66
2023/08/26 06:26:40;;;;;;;5.27;3.37;;;20.90;1.00;;;;;;8311352;28;20288;-65
2023/08/26 06:30:41;;;;;;;5.03;3.03;;;21.20;99.90;;;;;;8322434;28;20185;-67
2023/08/26 06:34:42;;;;;;;7.00;3.70;;;21.40;99.90;;;;;;8306920;28;20183;-66
2023/08/26 06:38:43;;;;;;;4.57;2.97;;;21.60;99.90;;;;;;8305838;28;20191;-66
2023/08/26 06:42:45;;;;;;;6.40;3.50;;;21.70;99.90;;;;;;8326490;28;20325;-65
2023/08/26 06:46:46;;;;;;;6.13;3.83;;;21.90;99.90;;;;;;8327046;28;20197;-66
2023/08/26 06:50:48;;;;;;;7.13;3.50;;;21.90;99.90;;;;;;8308580;28;20421;-68
2023/08/26 06:54:49;;;;;;;6.40;3.27;;;22.10;99.90;;;;;;8323670;28;20199;-67
2023/08/26 06:58:53;;;;;;;4.97;3.40;;;22.10;99.90;;;;;;8305897;28;20476;-67
2023/08/26 07:02:53;;;;;;;7.37;3.87;;;22.20;86.00;;;;;;8308843;28;20307;-68
2023/08/26 07:06:54;;;;;;;3.40;3.10;;;22.20;90.30;;;;;;8302520;28;20201;-68
2023/08/26 07:10:55;;;;;;;3.87;3.57;;;22.30;62.40;;;;;;8303902;28;20549;-66
2023/08/26 07:14:56;;;;;;;4.17;3.70;;;22.30;52.50;;;;;;8309974;28;20197;-68
2023/08/26 07:18:56;;;;;;;4.17;3.30;;;22.20;73.50;;;;;;8311232;28;20186;-66
2023/08/26 07:22:58;;;;;;;5.53;3.87;;;22.20;63.80;;;;;;8306594;28;20221;-67
2023/08/26 07:26:58;;;;;;;4.10;3.67;;;22.10;86.10;;;;;;8313002;28;20213;-67
2023/08/26 07:31:04;;;;;;;5.83;3.97;;;21.90;99.90;;;;;;8302284;28;20198;-67
2023/08/26 07:35:07;;;;;;;3.80;3.50;;;21.70;99.90;;;;;;8308559;28;20611;-65
2023/08/26 07:39:08;;;;;;;4.57;3.77;;;21.70;99.90;;;;;;8321966;28;20198;-66
2023/08/26 07:43:09;;;;;;;4.97;3.60;;;21.60;99.90;;;;;;8319885;28;20281;-64
2023/08/26 07:47:09;;;;;;;6.07;4.23;;;21.60;99.90;;;;;;8311182;28;20185;-65
2023/08/26 07:51:10;;;;;;;4.33;3.83;;;21.60;99.90;;;;;;8315819;28;20179;-63
2023/08/26 07:55:11;;;;;;;5.23;4.40;;;21.60;99.90;;;;;;8321604;28;20182;-66
2023/08/26 07:59:12;;;;;;;6.83;3.97;;;21.60;99.90;;;;;;8309622;28;20216;-66
2023/08/26 08:03:13;;;;;;;5.10;3.93;;;21.70;99.90;;;;;;8323763;28;20206;-66
2023/08/26 08:07:14;;;;;;;4.87;3.93;;;21.60;99.90;;;;;;8321571;28;20194;-66
2023/08/26 08:11:14;;;;;;;4.40;4.00;;;21.70;99.90;;;;;;8302673;28;20197;-65
2023/08/26 08:15:15;;;;;;;4.50;4.10;;;21.80;99.90;;;;;;8304466;28;20629;-66
2023/08/26 08:19:16;;;;;;;4.60;4.20;;;22.00;99.90;;;;;;8325180;28;20506;-66
2023/08/26 08:23:17;;;;;;;5.07;4.23;;;22.20;99.90;;;;;;8318614;28;20226;-66
2023/08/26 08:27:17;;;;;;;5.23;4.23;;;22.50;99.90;;;;;;8319132;28;20225;-65
2023/08/26 08:31:19;;;;;;;5.20;3.93;;;22.80;99.90;;;;;;8304289;28;20183;-65
2023/08/26 08:35:20;;;;;;;5.03;4.13;;;23.20;99.90;;;;;;8321224;28;20182;-66
2023/08/26 08:39:20;;;;;;;4.70;4.30;;;23.60;99.90;;;;;;8317442;28;20187;-63
2023/08/26 08:43:22;;;;;;;4.20;3.83;;;23.90;99.90;;;;;;8319604;28;20210;-65
2023/08/26 08:47:23;;;;;;;4.30;3.90;;;24.40;87.10;;;;;;8303347;28;20178;-66
2023/08/26 08:51:25;;;;;;;4.28;3.63;;;25.00;1.00;;;;;;8306494;28;20179;-66
2023/08/26 08:55:26;;;;;;;4.50;4.00;;;25.30;1.00;;;;;;8305342;28;20193;-66
2023/08/26 08:59:28;;;;;;;7.18;4.45;;;25.70;1.00;;;;;;8313808;28;20177;-65
2023/08/26 09:03:29;;;;;;;4.78;4.03;;;25.70;1.00;;;;;;8322162;28;20218;-65
2023/08/26 09:07:30;;;;;;;4.90;4.47;;;25.70;1.00;;;;;;8310476;28;20186;-67
2023/08/26 09:11:31;;;;;;;5.57;3.85;;;25.60;1.00;;;;;;8320771;28;20243;-68
2023/08/26 09:15:31;;;;;;;4.53;3.47;;;25.60;1.00;;;;;;8324177;28;20197;-66
2023/08/26 09:19:33;;;;;;;3.72;3.42;;;25.50;1.00;;;;;;8309715;28;20277;-69
2023/08/26 09:23:42;;;;;;;5.88;3.55;;;25.60;1.00;;;;;;8310944;28;20796;-65
2023/08/26 09:27:43;;;;;;;3.70;3.20;;;25.60;1.00;;;;;;8321849;28;20186;-66
2023/08/26 09:31:48;;;;;;;4.45;3.00;;;25.60;1.00;;;;;;8316113;28;20178;-64
2023/08/26 09:35:49;;;;;;;3.83;2.97;;;25.70;1.00;;;;;;8317809;28;20237;-68
2023/08/26 09:39:49;;;;;;;4.93;3.28;;;26.10;1.00;;;;;;8309772;28;20232;-67
2023/08/26 09:43:50;;;;;;;4.55;2.88;;;26.50;1.00;;;;;;8312691;28;20619;-66
2023/08/26 09:47:55;;;;;;;2.60;2.40;;;26.80;1.00;;;;;;8298943;28;20567;-68
2023/08/26 09:51:55;;;;;;;4.15;3.10;;;26.70;1.00;;;;;;8303056;28;20186;-66
2023/08/26 09:56:02;;;;;;;3.65;2.53;;;26.70;1.00;;;;;;8299353;28;20559;-67
2023/08/26 10:00:03;;;;;;;3.55;2.67;;;26.90;1.00;;;;;;8306154;28;20198;-66
2023/08/26 10:04:13;;;;;;;2.53;2.20;;;27.40;1.00;;;;;;8305883;28;20210;-67
2023/08/26 10:08:14;;;;;;;3.47;2.25;;;27.90;1.00;;;;;;8318920;28;20248;-66
2023/08/26 10:12:25;;;;;;;4.35;2.08;;;28.10;1.00;;;;;;8317458;28;20229;-65
2023/08/26 10:16:28;;;;;;;2.67;2.03;;;28.10;1.00;;;;;;8313859;28;20190;-64
2023/08/26 10:20:30;;;;;;;3.80;1.92;;;28.30;1.00;;;;;;8302330;28;20197;-66
2023/08/26 10:24:31;;;;;;;2.88;1.75;;;28.50;99.90;;;;;;8319857;28;20221;-65
2023/08/26 10:28:34;;;;;;;2.08;1.70;;;28.60;99.90;;;;;;8301896;28;20264;-66
2023/08/26 10:32:43;;;;;;;2.67;1.80;;;28.60;99.90;;;;;;8301169;28;20391;-63
2023/08/26 10:36:49;;;;;;;3.67;1.70;;;28.40;99.90;;;;;;8301181;28;20252;-69
2023/08/26 10:41:05;;;;;;;2.72;1.45;;;27.50;99.90;;;;;;8321063;28;20190;-65
2023/08/26 10:45:15;;;;;;;2.88;1.90;;;27.10;99.90;;;;;;8299288;28;20286;-64
2023/08/26 10:49:22;;;;;;;4.00;1.60;;;27.20;99.90;;;;;;8305350;28;20251;-64
2023/08/26 10:53:23;;;;;;;1.95;1.80;;;27.00;99.90;;;;;;8306962;28;20182;-64
2023/08/26 10:57:24;;;;;;;3.92;2.05;;;27.00;99.90;;;;;;8319098;28;20541;-68
2023/08/26 11:01:25;;;;;;;2.78;2.03;;;26.80;99.90;;;;;;8326636;28;20200;-64
2023/08/26 11:05:26;;;;;;;3.47;1.90;;;26.80;99.90;;;;;;8312393;28;20174;-65
2023/08/26 11:09:27;;;;;;;2.22;1.63;;;26.70;99.90;;;;;;8319060;28;20202;-66
2023/08/26 11:13:28;;;;;;;2.85;1.63;;;26.60;99.90;;;;;;8295986;28;20186;-66
2023/08/26 11:17:29;;;;;;;2.58;1.88;;;26.70;99.90;;;;;;8316925;28;20257;-64
2023/08/26 11:21:30;;;;;;;3.47;1.83;;;26.90;99.90;;;;;;8316209;28;20182;-65
2023/08/26 11:25:32;;;;;;;1.88;1.77;;;27.20;99.90;;;;;;8309420;28;20197;-63
2023/08/26 11:29:33;;;;;;;1.80;1.70;;;27.40;99.90;;;;;;8317183;28;20170;-66
2023/08/26 11:33:34;;;;;;;2.38;1.83;;;27.40;99.90;;;;;;8312423;28;20490;-64
2023/08/26 11:37:48;;;;;;;5.22;1.83;;;27.60;99.90;;;;;;8302734;28;20281;-65
2023/08/26 11:41:49;;;;;;;1.50;1.40;;;27.60;99.90;;;;;;8305334;28;20241;-63
2023/08/26 11:45:50;;;;;;;2.17;1.83;;;27.60;99.90;;;;;;8300517;28;20218;-64
2023/08/26 11:49:55;;;;;;;2.33;1.75;;;27.70;99.90;;;;;;8301408;28;20193;-67
2023/08/26 11:53:56;;;;;;;2.10;1.90;;;27.70;99.90;;;;;;8297550;28;20182;-65
2023/08/26 11:57:58;;;;;;;4.30;2.42;;;28.00;99.90;;;;;;8300581;28;20185;-63
2023/08/26 12:01:59;;;;;;;2.22;2.03;;;28.40;99.90;;;;;;8319400;28;20214;-65
2023/08/26 12:06:00;;;;;;;2.17;1.98;;;28.60;99.90;;;;;;8299120;28;20265;-64
2023/08/26 12:10:11;;;;;;;2.33;2.03;;;28.40;99.90;;;;;;8299758;28;20210;-67
2023/08/26 12:14:20;;;;;;;2.67;1.95;;;28.50;99.90;;;;;;8316008;28;20225;-68
2023/08/26 12:18:21;;;;;;;2.85;1.90;;;28.60;99.90;;;;;;8322732;28;20198;-61
2023/08/26 12:22:21;;;;;;;3.28;2.00;;;28.60;99.90;;;;;;8309105;28;20323;-67
2023/08/26 12:26:24;;;;;;;3.45;2.35;;;28.40;99.90;;;;;;8321974;28;20186;-63
2023/08/26 12:30:24;;;;;;;2.70;2.50;;;28.40;99.90;;;;;;8320122;28;20312;-67
2023/08/26 12:34:27;;;;;;;2.15;1.95;;;28.70;99.90;;;;;;8324169;28;20533;-66
2023/08/26 12:38:28;;;;;;;2.63;2.33;;;28.80;99.90;;;;;;8324616;28;20229;-64
2023/08/26 12:42:32;;;;;;;2.35;2.15;;;28.60;99.90;;;;;;8320951;28;20206;-65
2023/08/26 12:46:34;;;;;;;2.88;2.45;;;28.80;99.90;;;;;;8314443;28;20178;-63
2023/08/26 12:50:35;;;;;;;4.03;2.47;;;28.90;99.90;;;;;;8300363;28;20174;-63
2023/08/26 12:54:36;;;;;;;2.95;2.50;;;28.80;99.90;;;;;;8311672;28;20190;-64
2023/08/26 12:58:37;;;;;;;2.58;2.38;;;28.50;99.90;;;;;;8322640;28;20300;-66
2023/08/26 13:02:38;;;;;;;3.35;2.60;;;28.80;99.90;;;;;;8322785;28;20209;-62
2023/08/26 13:06:39;;;;;;;4.22;2.80;;;29.20;99.90;;;;;;8317674;28;20182;-63
2023/08/26 13:10:40;;;;;;;3.78;2.80;;;29.80;99.90;;;;;;8299739;28;20248;-63
2023/08/26 13:14:40;;;;;;;4.15;2.53;;;30.00;99.90;;;;;;8312164;28;20182;-63
2023/08/26 13:18:42;;;;;;;3.35;3.00;;;29.90;99.90;;;;;;8320578;28;20188;-66
2023/08/26 13:22:43;;;;;;;4.07;2.33;;;29.20;99.90;;;;;;8323664;28;20224;-64
2023/08/26 13:26:45;;;;;;;2.83;2.20;;;27.70;99.90;;;;;;8318629;28;20209;-64
2023/08/26 13:30:46;;;;;;;8.95;2.13;;;25.90;99.90;;;;;;8305967;28;20187;-64
2023/08/26 13:34:47;;;;;;;7.70;3.27;;;23.80;1.00;;;;;;8310965;28;20174;-63
2023/08/26 13:38:48;;;;;;;5.40;2.70;;;22.50;1.00;;;;;;8301481;28;20178;-63
2023/08/26 13:42:53;;;;;;;5.40;3.10;;;22.20;89.70;;;;;;8325520;28;20209;-63
2023/08/26 13:46:54;;;;;;;3.63;2.80;;;22.40;99.90;;;;;;8319263;28;20179;-63
2023/08/26 13:50:54;;;;;;;6.87;3.23;;;22.40;99.90;;;;;;8322271;28;20203;-65
2023/08/26 13:54:55;;;;;;;4.60;3.83;;;22.30;99.90;;;;;;8324821;28;20189;-64
2023/08/26 13:59:00;;;;;;;5.07;3.43;;;22.40;1.00;;;;;;8314455;28;20194;-64
2023/08/26 14:03:02;;;;;;;4.93;4.00;;;22.80;99.90;;;;;;8305969;28;20213;-65
2023/08/26 14:07:03;;;;;;;4.60;3.67;;;23.30;99.90;;;;;;8305310;28;20256;-65
2023/08/26 14:11:07;;;;;;;3.90;3.60;;;23.80;99.90;;;;;;8322888;28;20316;-65
2023/08/26 14:15:08;;;;;;;4.40;3.77;;;24.20;99.90;;;;;;8303024;28;20282;-65
2023/08/26 14:19:09;;;;;;;6.40;3.60;;;24.60;99.90;;;;;;8307844;28;20194;-66
2023/08/26 14:23:10;;;;;;;4.25;3.25;;;24.80;99.90;;;;;;8296694;28;20633;-65
2023/08/26 14:27:11;;;;;;;3.65;3.25;;;25.20;21.30;;;;;;8319099;28;20193;-66
2023/08/26 14:31:12;;;;;;;5.70;3.28;;;25.40;1.00;;;;;;8303356;28;20186;-65
2023/08/26 14:35:13;;;;;;;3.97;3.17;;;25.60;1.00;;;;;;8300708;28;21538;-67
2023/08/26 14:39:15;;;;;;;3.05;2.67;;;25.80;1.00;;;;;;8305679;28;20190;-63
2023/08/26 14:43:16;;;;;;;5.18;3.03;;;26.00;1.00;;;;;;8308600;28;20212;-65
2023/08/26 14:47:17;;;;;;;5.78;2.83;;;26.30;1.00;;;;;;8303027;28;20320;-64
2023/08/26 14:51:18;;;;;;;2.70;2.25;;;26.40;1.00;;;;;;8317937;28;20592;-65
2023/08/26 14:55:19;;;;;;;3.00;2.47;;;26.50;1.00;;;;;;8318330;28;20359;-63
2023/08/26 14:59:19;;;;;;;2.55;2.33;;;26.60;1.00;;;;;;8301081;28;20658;-64
2023/08/26 15:03:21;;;;;;;2.78;2.40;;;26.70;1.00;;;;;;8288828;28;20724;-66
2023/08/26 15:07:21;;;;;;;4.10;2.42;;;26.80;1.00;;;;;;8309607;28;20389;-63
2023/08/26 15:11:22;;;;;;;3.55;2.50;;;26.90;1.00;;;;;;8318081;28;20203;-66
2023/08/26 15:15:23;;;;;;;3.17;2.58;;;26.90;1.00;;;;;;8317223;28;20199;-67
2023/08/26 15:19:24;;;;;;;2.78;2.22;;;27.00;1.00;;;;;;8313996;28;20204;-67
2023/08/26 15:23:24;;;;;;;3.72;2.65;;;27.00;1.00;;;;;;8316029;28;20321;-66
2023/08/26 15:27:25;;;;;;;5.35;2.70;;;27.00;1.00;;;;;;8315071;28;20252;-64
2023/08/26 15:31:26;;;;;;;3.90;2.25;;;27.10;1.00;;;;;;8302389;28;20181;-64
2023/08/26 15:35:28;;;;;;;3.03;2.28;;;27.10;1.00;;;;;;8317264;28;20186;-66
2023/08/26 15:39:29;;;;;;;2.80;2.10;;;27.10;1.00;;;;;;8302727;28;20182;-65
2023/08/26 15:43:31;;;;;;;3.05;2.28;;;27.10;1.00;;;;;;8301678;28;20225;-65
2023/08/26 15:47:31;;;;;;;2.67;2.28;;;27.20;1.00;;;;;;8320511;28;20179;-66
2023/08/26 15:51:32;;;;;;;3.85;2.90;;;27.20;1.00;;;;;;8318956;28;20182;-65
2023/08/26 15:55:39;;;;;;;4.57;2.60;;;27.20;1.00;;;;;;8298597;28;20181;-66
2023/08/26 15:59:40;;;;;;;3.90;2.65;;;27.00;1.00;;;;;;8313683;28;20192;-67
2023/08/26 16:03:41;;;;;;;5.28;2.92;;;26.80;1.00;;;;;;8317853;28;20202;-66
2023/08/26 16:07:44;;;;;;;4.53;2.85;;;26.60;1.00;;;;;;8317455;28;20228;-65
2023/08/26 16:11:45;;;;;;;4.05;1.95;;;26.30;1.00;;;;;;8316225;28;20189;-65
2023/08/26 16:15:46;;;;;;;3.55;2.35;;;26.10;1.00;;;;;;8316186;28;20208;-65
2023/08/26 16:19:47;;;;;;;3.58;2.30;;;25.90;1.00;;;;;;8300511;28;20184;-65
2023/08/26 16:23:49;;;;;;;2.13;1.92;;;25.70;1.00;;;;;;8319184;28;20240;-66
2023/08/26 16:27:50;;;;;;;3.60;2.17;;;25.60;1.00;;;;;;8301359;28;20240;-64
2023/08/26 16:31:51;;;;;;;2.25;2.05;;;25.40;1.00;;;;;;8313697;28;20261;-64
2023/08/26 16:35:52;;;;;;;7.68;4.13;;;25.30;1.00;;;;;;8315141;28;20195;-65
2023/08/26 16:39:53;;;;;;;6.65;4.47;;;25.20;1.00;;;;;;8302587;28;20297;-63
2023/08/26 16:43:54;;;;;;;4.18;2.78;;;25.00;1.00;;;;;;8318809;28;20213;-64
2023/08/26 16:47:54;;;;;;;3.33;2.75;;;24.80;1.00;;;;;;8317992;28;20175;-64
2023/08/26 16:51:55;;;;;;;4.90;2.42;;;24.70;1.00;;;;;;8315789;28;20222;-64
2023/08/26 16:55:56;;;;;;;3.20;2.47;;;24.50;1.00;;;;;;8299011;28;20186;-64
2023/08/26 17:00:00;;;;;;;3.08;2.45;;;24.30;1.00;;;;;;8316576;28;20191;-63
2023/08/26 17:04:01;;;;;;;2.30;2.10;;;24.10;1.00;;;;;;8321801;28;20210;-64
2023/08/26 17:08:04;;;;;;;6.40;3.07;;;23.90;11.20;;;;;;8322630;28;20186;-63
2023/08/26 17:12:05;;;;;;;3.50;2.97;;;23.80;39.80;;;;;;8306179;28;20301;-64
2023/08/26 17:16:07;;;;;;;3.93;2.67;;;23.70;60.60;;;;;;8319384;28;20305;-65
2023/08/26 17:20:08;;;;;;;3.87;2.77;;;23.60;54.10;;;;;;8310478;28;20209;-66
2023/08/26 17:24:09;;;;;;;3.20;2.60;;;23.40;82.80;;;;;;8318562;28;20213;-65
2023/08/26 17:28:10;;;;;;;3.30;3.00;;;23.30;99.90;;;;;;8302761;28;20258;-63
2023/08/26 17:32:11;;;;;;;8.90;3.70;;;23.10;99.90;;;;;;8310440;28;20193;-63
2023/08/26 17:36:12;;;;;;;5.77;3.50;;;22.90;99.90;;;;;;8303204;28;20182;-62
2023/08/26 17:40:12;;;;;;;6.27;3.30;;;22.80;99.90;;;;;;8303112;28;20190;-63
2023/08/26 17:44:14;;;;;;;4.53;2.80;;;22.50;99.90;;;;;;8307582;28;20309;-63
2023/08/26 17:48:15;;;;;;;4.47;3.43;;;22.20;99.90;;;;;;8304258;28;20197;-63
2023/08/26 17:52:15;;;;;;;4.03;3.60;;;22.00;99.90;;;;;;8322843;28;20178;-62
2023/08/26 17:56:16;;;;;;;6.60;3.23;;;21.90;99.90;;;;;;8333367;28;20194;-65
2023/08/26 18:00:17;;;;;;;3.77;2.90;;;21.90;99.90;;;;;;8323642;28;20340;-63
2023/08/26 18:04:18;;;;;;;4.40;3.40;;;21.80;99.90;;;;;;8317017;28;20212;-64
2023/08/26 18:08:22;;;;;;;4.33;3.33;;;21.70;1.00;;;;;;8315962;28;20516;-64
2023/08/26 18:12:23;;;;;;;3.63;3.30;;;21.60;1.00;;;;;;8306761;28;20541;-63
2023/08/26 18:16:24;;;;;;;4.93;3.80;;;21.50;1.00;;;;;;8312016;28;20185;-64
2023/08/26 18:20:26;;;;;;;6.20;4.20;;;21.50;1.00;;;;;;8320761;28;20200;-60
2023/08/26 18:24:27;;;;;;;6.03;4.53;;;21.40;1.00;;;;;;8302749;28;20218;-61
2023/08/26 18:28:29;;;;;;;4.20;3.60;;;21.30;99.90;;;;;;8317731;28;20178;-61
2023/08/26 18:32:30;;;;;;;4.03;3.63;;;21.30;99.90;;;;;;8326082;28;20186;-62
2023/08/26 18:36:31;;;;;;;5.57;3.43;;;21.10;99.90;;;;;;8304056;28;20193;-61
2023/08/26 18:40:32;;;;;;;5.80;4.00;;;21.10;99.90;;;;;;8304332;28;20495;-63
2023/08/26 18:44:33;;;;;;;4.13;3.73;;;21.00;1.00;;;;;;8317179;28;20334;-63
2023/08/26 18:48:34;;;;;;;3.93;3.53;;;20.90;1.00;;;;;;8326570;28;20178;-61
2023/08/26 18:52:35;;;;;;;5.70;4.63;;;20.90;96.50;;;;;;8306546;28;20189;-62
2023/08/26 18:56:36;;;;;;;5.00;4.50;;;20.80;99.90;;;;;;8314661;28;20331;-60
2023/08/26 19:00:37;;;;;;;8.00;5.77;;;20.70;99.90;;;;;;8318289;28;20269;-64
2023/08/26 19:04:38;;;;;;;6.00;5.10;;;20.60;1.00;;;;;;8319122;28;20209;-61
2023/08/26 19:08:39;;;;;;;4.93;4.30;;;20.70;1.00;;;;;;8306441;28;20266;-61
2023/08/26 19:12:46;;;;;;;4.63;4.07;;;20.60;1.00;;;;;;8322170;28;20208;-60
2023/08/26 19:16:47;;;;;;;4.83;4.37;;;20.60;29.50;;;;;;8322528;28;20178;-63
2023/08/26 19:20:50;;;;;;;4.30;3.90;;;20.60;99.90;;;;;;8321096;28;20181;-66
2023/08/26 19:24:52;;;;;;;4.77;3.53;;;20.60;99.90;;;;;;8322540;28;20202;-65
2023/08/26 19:28:53;;;;;;;6.90;4.27;;;20.60;99.90;;;;;;8303727;28;20191;-65
2023/08/26 19:32:55;;;;;;;5.03;4.50;;;20.50;1.00;;;;;;8321787;28;20219;-65
2023/08/26 19:36:55;;;;;;;5.13;3.90;;;20.50;99.90;;;;;;8300074;28;20236;-66
2023/08/26 19:40:56;;;;;;;4.50;3.77;;;20.40;99.90;;;;;;8306893;28;20196;-66
2023/08/26 19:44:57;;;;;;;4.00;3.70;;;20.40;1.00;;;;;;8305032;28;20214;-68
2023/08/26 19:48:58;;;;;;;4.60;4.20;;;20.40;99.90;;;;;;8303757;28;20245;-67
2023/08/26 19:52:59;;;;;;;9.20;6.07;;;20.40;99.90;;;;;;8322173;28;20189;-69
2023/08/26 19:57:07;;;;;;;7.80;6.40;;;20.40;99.90;;;;;;8307412;28;20185;-69
2023/08/26 20:01:08;;;;;;;8.00;6.80;;;20.40;94.70;;;;;;8302887;28;20186;-68
2023/08/26 20:05:09;;;;;;;8.37;6.53;;;20.40;99.90;;;;;;8323271;28;20215;-68
2023/08/26 20:09:10;;;;;;;7.03;6.20;;;20.40;99.90;;;;;;8317948;28;20205;-70
2023/08/26 20:13:11;;;;;;;9.30;6.40;;;20.40;1.00;;;;;;8305519;28;20186;-68
2023/08/26 20:17:12;;;;;;;7.00;5.70;;;20.40;1.00;;;;;;8301496;28;20217;-68
2023/08/26 20:21:13;;;;;;;8.50;5.03;;;20.40;99.90;;;;;;8306857;28;20182;-68
2023/08/26 20:25:14;;;;;;;7.17;5.63;;;20.30;1.00;;;;;;8303946;28;20546;-67
2023/08/26 20:29:15;;;;;;;7.30;5.87;;;20.30;1.00;;;;;;8304087;28;20276;-66
2023/08/26 20:33:16;;;;;;;8.13;6.30;;;20.30;99.90;;;;;;8307743;28;20217;-63
2023/08/26 20:37:17;;;;;;;10.47;7.63;;;20.30;99.90;;;;;;8304617;28;20205;-64
2023/08/26 20:41:18;;;;;;;12.00;8.00;;;20.30;99.90;;;;;;8314185;28;20199;-61
2023/08/26 20:45:22;;;;;;;9.93;7.03;;;20.30;99.90;;;;;;8328317;28;20213;-63
2023/08/26 20:49:23;;;;;;;8.07;6.67;;;20.20;99.90;;;;;;8315428;28;20179;-62
2023/08/26 20:53:24;;;;;;;7.73;5.13;;;20.20;99.90;;;;;;8312501;28;20197;-63
2023/08/26 20:57:26;;;;;;;8.27;4.60;;;20.10;43.90;;;;;;8324739;28;20496;-63
2023/08/26 21:01:26;;;;;;;8.50;5.27;;;20.00;99.90;;;;;;8326473;28;20626;-62